Time;durP1;ratioP1;P1;durP2;ratioP2;P2;SDS_P1;SDS_P2;PMS_P1;PMS_P2;Temp;Humidity;BMP_temperature;BMP_pressure;BME280_temperature;BME280_humidity;BME280_pressure;Samples;Min_cycle;Max_cycle;Signal;HPM_P1;HPM_P2
2022/03/10 00:00:04;;;;;;;56.40;30.02;;;;;;;4.01;100.00;100818.25;4876792;29;20040;-86
2022/03/10 00:03:10;;;;;;;64.85;29.98;;;;;;;3.97;100.00;100825.13;4890202;29;20052;-86
2022/03/10 00:05:55;;;;;;;58.45;27.55;;;;;;;3.85;100.00;100828.34;4889948;29;20044;-86
2022/03/10 00:08:39;;;;;;;53.22;26.27;;;;;;;3.92;100.00;100837.09;4889871;29;20048;-86
2022/03/10 00:11:24;;;;;;;55.78;28.42;;;;;;;3.92;100.00;100845.75;4887305;29;20061;-86
2022/03/10 00:14:10;;;;;;;60.05;28.73;;;;;;;4.04;100.00;100849.44;4889730;29;20044;-86
2022/03/10 00:16:56;;;;;;;60.45;27.20;;;;;;;3.96;100.00;100852.75;4861197;29;20139;-86
2022/03/10 00:19:40;;;;;;;48.17;25.27;;;;;;;3.99;100.00;100851.91;4903770;29;20444;-86
2022/03/10 00:22:25;;;;;;;51.67;26.00;;;;;;;4.01;100.00;100855.44;4887173;29;20052;-86
2022/03/10 00:25:10;;;;;;;43.92;23.38;;;;;;;4.08;100.00;100862.47;4889543;29;20067;-85
2022/03/10 00:27:54;;;;;;;38.83;20.92;;;;;;;4.14;100.00;100862.56;4903477;29;20056;-86
2022/03/10 00:30:39;;;;;;;42.65;22.27;;;;;;;4.14;100.00;100862.56;4876511;29;20052;-86
2022/03/10 00:33:23;;;;;;;43.58;21.83;;;;;;;4.23;100.00;100854.09;4889430;29;20044;-86
2022/03/10 00:36:08;;;;;;;44.95;21.60;;;;;;;4.23;100.00;100864.47;4889429;29;20055;-85
2022/03/10 00:38:52;;;;;;;35.80;18.38;;;;;;;4.04;100.00;100859.81;4903187;29;20049;-86
2022/03/10 00:41:36;;;;;;;31.75;16.95;;;;;;;4.08;100.00;100866.78;4889378;29;20356;-85
2022/03/10 00:44:21;;;;;;;28.20;15.23;;;;;;;4.14;100.00;100861.72;4903112;29;20040;-85
2022/03/10 00:47:05;;;;;;;27.13;14.25;;;;;;;4.30;100.00;100862.84;4903139;29;20048;-86
2022/03/10 00:49:49;;;;;;;24.23;14.25;;;;;;;4.32;100.00;100868.91;4902920;29;20064;-86
2022/03/10 00:52:39;;;;;;;25.80;12.60;;;;;;;4.39;100.00;100873.38;4889470;29;20112;-85
2022/03/10 00:55:24;;;;;;;19.90;12.10;;;;;;;4.31;100.00;100883.63;4902929;29;20041;-86
2022/03/10 00:58:08;;;;;;;21.40;11.70;;;;;;;4.36;100.00;100887.19;4888929;29;20048;-85
2022/03/10 01:00:52;;;;;;;15.75;11.05;;;;;;;4.20;100.00;100885.16;4888944;29;20356;-87
2022/03/10 01:03:37;;;;;;;21.92;10.23;;;;;;;4.31;100.00;100886.22;4903075;29;20048;-86
2022/03/10 01:06:21;;;;;;;12.85;8.88;;;;;;;4.12;100.00;100879.81;4888776;29;20045;-86
2022/03/10 01:09:06;;;;;;;14.13;9.65;;;;;;;4.17;100.00;100895.47;4875638;29;20045;-86
2022/03/10 01:11:50;;;;;;;11.85;8.02;;;;;;;4.29;100.00;100905.19;4902641;29;20101;-86
2022/03/10 01:14:35;;;;;;;15.05;8.80;;;;;;;4.17;100.00;100896.34;4868531;29;20048;-85
2022/03/10 01:17:20;;;;;;;13.23;9.23;;;;;;;4.09;100.00;100900.50;4902396;29;20045;-85
2022/03/10 01:20:05;;;;;;;12.05;8.48;;;;;;;4.10;100.00;100898.81;4888611;29;20443;-87
2022/03/10 01:22:50;;;;;;;11.30;8.98;;;;;;;3.99;100.00;100899.47;4888554;29;20067;-86
2022/03/10 01:25:34;;;;;;;11.35;8.55;;;;;;;4.09;100.00;100903.09;4888280;29;20059;-87
2022/03/10 01:28:19;;;;;;;12.45;8.32;;;;;;;3.99;100.00;100902.03;4888410;29;20049;-86
2022/03/10 01:31:04;;;;;;;11.32;8.85;;;;;;;3.86;100.00;100905.25;4888377;29;20164;-85
2022/03/10 01:33:48;;;;;;;13.73;9.05;;;;;;;3.77;100.00;100906.78;4888478;29;20545;-85
2022/03/10 01:36:32;;;;;;;13.43;8.73;;;;;;;3.73;100.00;100898.94;4888579;29;20112;-87
2022/03/10 01:39:16;;;;;;;13.23;9.32;;;;;;;3.60;100.00;100915.09;4888333;29;20052;-85
2022/03/10 01:42:03;;;;;;;12.63;8.93;;;;;;;3.87;100.00;100911.34;4902101;29;20045;-85
2022/03/10 01:44:52;;;;;;;11.73;8.52;;;;;;;3.89;100.00;100914.81;4902079;29;20140;-85
2022/03/10 01:47:37;;;;;;;11.75;8.45;;;;;;;3.98;100.00;100918.47;4901991;29;20052;-86
2022/03/10 01:50:21;;;;;;;12.73;9.32;;;;;;;3.83;100.00;100920.75;4902142;29;20059;-86
2022/03/10 01:53:06;;;;;;;13.30;9.23;;;;;;;3.79;100.00;100918.06;4874969;29;20049;-85
2022/03/10 01:55:51;;;;;;;15.45;10.95;;;;;;;3.88;100.00;100921.72;4888057;29;20443;-84
2022/03/10 01:58:37;;;;;;;14.75;9.05;;;;;;;3.87;100.00;100919.13;4887872;29;20056;-85
2022/03/10 02:01:22;;;;;;;12.32;8.65;;;;;;;3.78;100.00;100917.19;4900910;29;20044;-85
2022/03/10 02:04:07;;;;;;;12.30;9.45;;;;;;;3.62;100.00;100920.31;4901700;29;20055;-86
2022/03/10 02:06:52;;;;;;;13.70;9.60;;;;;;;3.66;100.00;100928.19;4901753;29;20055;-82
2022/03/10 02:12:39;;;;;;;13.32;8.85;;;;;;;3.51;100.00;100927.88;4901638;29;20128;-83
2022/03/10 02:18:31;;;;;;;13.88;8.85;;;;;;;3.17;100.00;100950.41;4887464;29;20060;-82
2022/03/10 02:21:16;;;;;;;11.20;7.95;;;;;;;3.16;100.00;100942.63;4874502;29;20052;-84
2022/03/10 02:24:00;;;;;;;14.30;8.10;;;;;;;3.15;100.00;100952.13;4874371;29;20069;-82
2022/03/10 02:26:44;;;;;;;9.10;6.22;;;;;;;3.18;98.15;100952.16;4887280;29;20067;-85
2022/03/10 02:29:29;;;;;;;8.57;5.97;;;;;;;3.25;96.84;100963.53;4887436;29;20060;-85
2022/03/10 02:32:16;;;;;;;8.75;5.82;;;;;;;3.21;94.27;100964.31;4901142;29;20052;-84
2022/03/10 02:35:00;;;;;;;9.30;5.50;;;;;;;3.07;92.93;100958.81;4874255;29;20103;-84
2022/03/10 02:37:46;;;;;;;12.60;6.38;;;;;;;3.03;92.26;100965.63;4887423;29;20056;-83
2022/03/10 02:40:31;;;;;;;8.65;5.85;;;;;;;2.98;91.75;100971.53;4887227;29;20044;-82
2022/03/10 02:43:16;;;;;;;8.05;5.65;;;;;;;2.91;92.11;100992.94;4887178;29;20047;-83
2022/03/10 02:46:00;;;;;;;9.27;6.07;;;;;;;2.76;92.30;100993.41;4887203;29;20123;-83
2022/03/10 02:48:45;;;;;;;10.75;6.22;;;;;;;2.61;93.09;101001.66;4887280;29;20055;-83
2022/03/10 02:51:29;;;;;;;9.00;5.80;;;;;;;2.40;93.72;101003.66;4873982;29;20049;-84
2022/03/10 02:54:14;;;;;;;11.32;6.07;;;;;;;2.32;92.92;100998.31;4886987;29;20066;-83
2022/03/10 02:56:59;;;;;;;10.10;6.13;;;;;;;2.07;94.17;101013.13;4886925;29;20072;-82
2022/03/10 02:59:43;;;;;;;9.38;5.57;;;;;;;1.84;95.74;101027.09;4873959;29;20047;-81
2022/03/10 03:02:28;;;;;;;9.80;6.10;;;;;;;1.84;96.41;101021.91;4900943;29;20036;-81
2022/03/10 03:05:13;;;;;;;11.15;5.75;;;;;;;1.81;95.15;101024.41;4900777;29;20104;-81
2022/03/10 03:07:57;;;;;;;12.20;5.43;;;;;;;1.47;96.48;101025.97;4886899;29;20049;-81
2022/03/10 03:10:41;;;;;;;8.63;5.05;;;;;;;1.48;97.92;101027.72;4900917;29;20040;-80
2022/03/10 03:13:25;;;;;;;9.57;6.00;;;;;;;1.37;98.55;101032.56;4871313;29;20056;-80
2022/03/10 03:16:10;;;;;;;11.40;6.65;;;;;;;1.22;98.42;101038.94;4886794;29;20333;-80
2022/03/10 03:18:54;;;;;;;10.95;6.95;;;;;;;1.18;98.00;101032.81;4886833;29;20056;-80
2022/03/10 03:21:39;;;;;;;11.88;6.68;;;;;;;0.99;99.58;101033.91;4886894;29;20055;-80
2022/03/10 03:24:24;;;;;;;10.52;6.70;;;;;;;1.01;100.00;101044.25;4900612;29;20048;-80
2022/03/10 03:27:08;;;;;;;12.75;6.60;;;;;;;0.98;100.00;101034.72;4886574;29;20056;-80
2022/03/10 03:29:52;;;;;;;10.52;6.45;;;;;;;1.10;100.00;101039.41;4886669;29;20057;-80
2022/03/10 03:32:37;;;;;;;11.40;6.57;;;;;;;1.20;99.67;101041.44;4886713;29;20045;-80
2022/03/10 03:35:21;;;;;;;13.38;7.60;;;;;;;1.15;100.00;101053.34;4900374;29;20114;-80
2022/03/10 03:38:05;;;;;;;11.93;7.70;;;;;;;1.16;100.00;101057.66;4900516;29;20052;-80
2022/03/10 03:40:49;;;;;;;13.68;8.77;;;;;;;1.22;100.00;101057.00;4900437;29;20048;-80
2022/03/10 03:43:34;;;;;;;15.23;8.63;;;;;;;1.24;100.00;101060.53;4886597;29;20048;-80
2022/03/10 03:46:18;;;;;;;17.70;10.35;;;;;;;1.18;100.00;101066.34;4900344;29;20044;-80
2022/03/10 03:49:02;;;;;;;20.70;11.73;;;;;;;1.35;100.00;101065.19;4900398;29;20049;-80
2022/03/10 03:51:47;;;;;;;16.77;9.90;;;;;;;1.31;100.00;101067.63;4886553;29;20364;-80
2022/03/10 03:54:32;;;;;;;14.27;9.18;;;;;;;1.37;100.00;101086.78;4886538;29;20044;-80
2022/03/10 03:57:16;;;;;;;14.32;8.60;;;;;;;1.28;100.00;101077.84;4886365;29;20107;-80
2022/03/10 04:00:01;;;;;;;14.27;8.60;;;;;;;1.39;100.00;101087.69;4886398;29;20041;-80
2022/03/10 04:02:45;;;;;;;15.82;8.95;;;;;;;1.46;100.00;101080.13;4900244;29;20048;-80
2022/03/10 04:05:30;;;;;;;16.73;10.35;;;;;;;1.45;100.00;101096.47;4886427;29;20052;-80
2022/03/10 04:08:15;;;;;;;16.52;10.15;;;;;;;1.50;100.00;101093.22;4886362;29;20045;-80
2022/03/10 04:10:59;;;;;;;15.15;9.50;;;;;;;1.47;100.00;101107.75;4900374;29;20428;-80
2022/03/10 04:13:44;;;;;;;19.70;11.88;;;;;;;1.39;100.00;101104.88;4886404;29;20040;-79
2022/03/10 04:16:29;;;;;;;18.02;10.93;;;;;;;1.38;100.00;101110.88;4886337;29;20048;-80
2022/03/10 04:19:13;;;;;;;17.33;10.10;;;;;;;1.38;100.00;101110.88;4900076;29;20123;-82
2022/03/10 04:21:58;;;;;;;16.27;8.50;;;;;;;1.39;100.00;101116.09;4900420;29;20052;-80
2022/03/10 04:24:43;;;;;;;14.10;9.25;;;;;;;1.47;100.00;101123.22;4888718;29;20435;-80
2022/03/10 04:27:27;;;;;;;12.13;7.38;;;;;;;1.39;100.00;101123.84;4876631;29;20128;-82
2022/03/10 04:30:12;;;;;;;11.77;6.80;;;;;;;1.31;100.00;101120.13;4903648;29;20072;-81
2022/03/10 04:32:56;;;;;;;10.80;7.10;;;;;;;1.26;100.00;101123.38;4889099;29;20040;-82
2022/03/10 04:35:41;;;;;;;12.98;7.38;;;;;;;1.06;100.00;101122.72;4889379;29;20045;-82
2022/03/10 04:38:26;;;;;;;12.07;6.20;;;;;;;1.15;97.51;101133.34;4889884;29;20116;-81
2022/03/10 04:41:12;;;;;;;11.18;5.70;;;;;;;0.94;95.25;101151.53;4889027;29;20428;-79
2022/03/10 04:43:57;;;;;;;8.70;5.15;;;;;;;0.85;93.20;101152.09;4891142;29;20041;-83
2022/03/10 04:46:41;;;;;;;7.30;5.22;;;;;;;0.82;89.04;101141.69;4870702;29;20447;-76
2022/03/10 04:49:25;;;;;;;8.02;5.25;;;;;;;0.63;88.22;101145.28;4884278;29;20364;-76
2022/03/10 04:52:09;;;;;;;15.30;5.30;;;;;;;0.45;87.45;101149.75;4884315;29;20420;-76
2022/03/10 04:54:55;;;;;;;7.90;4.70;;;;;;;0.45;87.18;101167.81;4884412;29;20045;-76
2022/03/10 04:57:40;;;;;;;9.00;5.32;;;;;;;0.08;88.04;101156.13;4870675;29;20053;-76
2022/03/10 05:00:25;;;;;;;12.50;6.50;;;;;;;0.05;88.81;101144.81;4884493;29;20057;-76
2022/03/10 05:03:10;;;;;;;13.57;6.68;;;;;;;0.09;89.65;101175.91;4884197;29;20504;-76
2022/03/10 05:05:54;;;;;;;13.77;7.85;;;;;;;-0.13;90.97;101181.03;4870661;29;20102;-76
2022/03/10 05:08:38;;;;;;;14.05;7.07;;;;;;;-0.32;94.04;101188.03;4884159;29;20049;-76
2022/03/10 05:11:23;;;;;;;11.55;6.85;;;;;;;-0.39;96.15;101196.31;4884261;29;20045;-76
2022/03/10 05:14:07;;;;;;;14.20;5.63;;;;;;;-0.50;97.87;101176.97;4870404;29;20045;-76
2022/03/10 05:16:53;;;;;;;11.77;6.53;;;;;;;-0.60;99.33;101170.56;4885109;29;20128;-76
2022/03/10 05:19:37;;;;;;;11.43;6.05;;;;;;;-0.60;100.00;101198.88;4885040;29;20128;-76
2022/03/10 05:22:22;;;;;;;10.73;5.82;;;;;;;-0.83;100.00;101182.44;4884342;29;20403;-76
2022/03/10 05:25:07;;;;;;;9.70;6.03;;;;;;;-0.67;100.00;101204.56;4871068;29;20109;-76
2022/03/10 05:27:52;;;;;;;11.95;5.97;;;;;;;-0.76;100.00;101223.06;4884236;29;20049;-76
2022/03/10 05:30:36;;;;;;;9.85;5.40;;;;;;;-0.84;100.00;101229.59;4884714;29;20123;-76
2022/03/10 05:33:21;;;;;;;9.05;5.38;;;;;;;-0.88;100.00;101231.94;4870447;29;20045;-76
2022/03/10 05:36:05;;;;;;;8.60;5.88;;;;;;;-0.89;100.00;101218.19;4883083;29;20373;-75
2022/03/10 05:38:49;;;;;;;10.88;5.60;;;;;;;-0.95;100.00;101217.94;4870693;29;20048;-76
2022/03/10 05:41:34;;;;;;;8.88;5.45;;;;;;;-1.07;100.00;101219.97;4884172;29;20045;-75
2022/03/10 05:44:18;;;;;;;9.70;5.22;;;;;;;-1.02;100.00;101223.63;4883951;29;20040;-76
2022/03/10 05:47:03;;;;;;;8.93;5.20;;;;;;;-0.95;100.00;101241.09;4870478;29;20052;-76
2022/03/10 05:49:49;;;;;;;10.63;5.50;;;;;;;-1.00;100.00;101227.16;4869773;29;20056;-76
2022/03/10 05:52:33;;;;;;;10.23;5.50;;;;;;;-0.99;100.00;101237.50;4870009;29;20065;-76
2022/03/10 05:55:19;;;;;;;9.25;5.30;;;;;;;-0.97;100.00;101256.47;4869719;29;20045;-76
2022/03/10 05:58:04;;;;;;;11.48;5.72;;;;;;;-1.08;100.00;101255.09;4869734;29;20041;-76
2022/03/10 06:00:49;;;;;;;11.40;6.68;;;;;;;-1.16;100.00;101256.44;4886834;29;20045;-76
2022/03/10 06:03:33;;;;;;;13.00;6.55;;;;;;;-1.07;100.00;101259.44;4872207;29;20084;-76
2022/03/10 06:06:18;;;;;;;14.50;7.40;;;;;;;-0.99;100.00;101258.06;4885116;29;20045;-76
2022/03/10 06:09:02;;;;;;;12.98;6.00;;;;;;;-0.73;100.00;101264.38;4870925;29;20055;-76
2022/03/10 06:11:47;;;;;;;10.82;5.78;;;;;;;-0.12;100.00;101275.53;4870297;29;20199;-76
2022/03/10 06:14:32;;;;;;;10.57;6.80;;;;;;;0.11;96.72;101253.28;4883292;29;20045;-76
2022/03/10 06:17:17;;;;;;;10.98;5.95;;;;;;;0.48;95.14;101278.78;4869771;29;20045;-76
2022/03/10 06:20:01;;;;;;;7.88;5.60;;;;;;;0.84;90.71;101269.00;4883443;29;20124;-76
2022/03/10 06:22:46;;;;;;;28.25;12.38;;;;;;;1.19;89.78;101287.50;4882911;29;20049;-76
2022/03/10 06:25:30;;;;;;;19.00;9.73;;;;;;;1.33;87.18;101296.63;4883089;29;20057;-76
2022/03/10 06:28:15;;;;;;;16.42;8.55;;;;;;;1.55;88.57;101299.97;4882017;29;20475;-76
2022/03/10 06:30:59;;;;;;;19.85;9.80;;;;;;;1.95;86.40;101298.72;4869500;29;20056;-76
2022/03/10 06:33:44;;;;;;;13.40;7.93;;;;;;;2.07;84.08;101297.44;4883257;29;20055;-76
2022/03/10 06:36:28;;;;;;;19.98;9.63;;;;;;;2.44;79.83;101306.41;4882782;29;20064;-76
2022/03/10 06:39:13;;;;;;;14.27;7.75;;;;;;;2.21;80.79;101290.16;4882804;29;20049;-76
2022/03/10 06:41:57;;;;;;;14.63;7.60;;;;;;;3.14;80.70;101315.41;4882851;29;20041;-76
2022/03/10 06:44:42;;;;;;;15.02;8.25;;;;;;;3.43;76.07;101315.38;4868810;29;20444;-77
2022/03/10 06:47:27;;;;;;;21.27;10.07;;;;;;;3.29;75.53;101327.94;4882627;29;20459;-76
2022/03/10 06:50:12;;;;;;;14.40;8.45;;;;;;;3.50;74.03;101327.66;4882438;29;20049;-75
2022/03/10 06:52:56;;;;;;;17.02;8.70;;;;;;;3.33;74.26;101329.78;4882657;29;20053;-76
2022/03/10 06:55:41;;;;;;;15.52;9.50;;;;;;;3.56;74.30;101337.31;4882385;29;20048;-76
2022/03/10 06:58:26;;;;;;;14.18;8.15;;;;;;;3.74;73.46;101324.88;4868485;29;20076;-76
2022/03/10 07:01:10;;;;;;;17.60;8.65;;;;;;;3.68;72.13;101319.53;4869134;29;20049;-76
2022/03/10 07:03:57;;;;;;;13.68;8.65;;;;;;;3.46;73.60;101320.63;4882847;29;20059;-76
2022/03/10 07:06:41;;;;;;;12.88;7.40;;;;;;;3.74;72.62;101336.09;4882175;29;20049;-76
2022/03/10 07:09:26;;;;;;;11.63;7.30;;;;;;;4.36;70.59;101335.09;4868696;29;20425;-77
2022/03/10 07:12:10;;;;;;;11.55;7.57;;;;;;;4.15;70.30;101323.31;4881980;29;20045;-78
2022/03/10 07:14:55;;;;;;;15.95;8.00;;;;;;;4.09;71.51;101345.63;4882971;29;20045;-78
2022/03/10 07:17:39;;;;;;;11.15;7.35;;;;;;;4.13;70.98;101331.94;4868277;29;20040;-77
2022/03/10 07:20:24;;;;;;;11.05;6.63;;;;;;;3.74;70.47;101312.78;4855945;29;20049;-78
2022/03/10 07:23:08;;;;;;;12.13;7.93;;;;;;;3.97;70.31;101336.72;4882521;29;20041;-76
2022/03/10 07:25:53;;;;;;;12.60;8.27;;;;;;;3.88;70.68;101341.66;4868543;29;20369;-77
2022/03/10 07:28:37;;;;;;;11.05;7.25;;;;;;;4.81;69.45;101345.69;4868244;29;20048;-77
2022/03/10 07:31:22;;;;;;;10.60;7.30;;;;;;;4.71;68.34;101340.22;4868302;29;20052;-77
2022/03/10 07:34:06;;;;;;;11.35;7.50;;;;;;;4.97;68.02;101353.78;4868524;29;20052;-77
2022/03/10 07:36:50;;;;;;;11.38;7.38;;;;;;;5.24;66.37;101350.94;4868187;29;20049;-77
2022/03/10 07:39:35;;;;;;;13.48;8.05;;;;;;;5.19;66.41;101356.00;4881527;29;20037;-76
2022/03/10 07:42:19;;;;;;;15.80;8.85;;;;;;;4.87;65.09;101357.91;4882228;29;20056;-75
2022/03/10 07:45:04;;;;;;;12.05;7.10;;;;;;;5.41;65.13;101356.47;4882170;29;20045;-78
2022/03/10 07:47:49;;;;;;;10.65;6.95;;;;;;;5.16;63.53;101364.63;4881860;29;20140;-77
2022/03/10 07:50:34;;;;;;;13.32;7.78;;;;;;;4.82;64.80;101369.91;4882426;29;20041;-78
2022/03/10 07:53:19;;;;;;;12.88;6.93;;;;;;;5.02;65.93;101366.03;4881170;29;20164;-76
2022/03/10 07:56:04;;;;;;;13.30;6.93;;;;;;;5.15;64.33;101380.19;4882405;29;20041;-76
2022/03/10 07:58:50;;;;;;;44.22;12.60;;;;;;;5.28;63.49;101384.78;4869040;29;20408;-74
2022/03/10 08:01:35;;;;;;;12.27;7.22;;;;;;;5.35;62.58;101385.81;4872103;29;20041;-77
2022/03/10 08:04:19;;;;;;;36.35;11.77;;;;;;;4.93;62.79;101384.88;4885876;29;20071;-76
2022/03/10 08:07:04;;;;;;;16.63;8.55;;;;;;;5.05;62.19;101386.91;4871561;29;20353;-75
2022/03/10 08:09:48;;;;;;;19.17;7.97;;;;;;;4.89;63.79;101392.59;4871979;29;20041;-75
2022/03/10 08:12:34;;;;;;;12.32;8.45;;;;;;;5.65;61.81;101389.88;4871482;29;20041;-76
2022/03/10 08:15:20;;;;;;;13.45;8.13;;;;;;;5.06;61.30;101392.97;4868898;29;20064;-76
2022/03/10 08:18:06;;;;;;;14.55;8.85;;;;;;;4.97;61.96;101390.16;4871235;29;20076;-76
2022/03/10 08:20:50;;;;;;;15.23;8.40;;;;;;;4.87;61.70;101394.25;4885369;29;20115;-77
2022/03/10 08:23:35;;;;;;;13.02;8.27;;;;;;;4.87;59.04;101392.53;4885235;29;20060;-76
2022/03/10 08:26:19;;;;;;;11.93;7.35;;;;;;;4.72;56.73;101383.53;4870969;29;20193;-78
2022/03/10 08:29:04;;;;;;;22.02;10.13;;;;;;;5.21;58.18;101388.13;4871697;29;20068;-77
2022/03/10 08:31:49;;;;;;;19.45;9.10;;;;;;;5.45;55.80;101382.53;4884402;29;20045;-74
2022/03/10 08:34:35;;;;;;;12.68;7.38;;;;;;;5.21;55.73;101382.03;4871382;29;20053;-75
2022/03/10 08:37:20;;;;;;;19.05;7.65;;;;;;;5.46;53.51;101391.22;4885182;29;20045;-76
2022/03/10 08:40:05;;;;;;;12.35;6.43;;;;;;;5.39;51.25;101385.00;4884818;29;20049;-77
2022/03/10 08:42:51;;;;;;;12.48;7.47;;;;;;;5.01;51.58;101386.81;4884609;29;20333;-75
2022/03/10 08:45:37;;;;;;;11.85;6.53;;;;;;;5.03;51.92;101383.38;4871030;29;20116;-75
2022/03/10 08:48:21;;;;;;;12.70;7.13;;;;;;;5.32;50.47;101383.13;4884863;29;20053;-76
2022/03/10 08:51:06;;;;;;;10.73;6.22;;;;;;;5.47;51.29;101375.69;4870791;29;20168;-76
2022/03/10 08:53:50;;;;;;;13.07;7.53;;;;;;;5.76;48.91;101386.66;4884972;29;20048;-76
2022/03/10 08:56:34;;;;;;;10.85;7.53;;;;;;;5.39;48.77;101398.91;4870620;29;20045;-75
2022/03/10 08:59:19;;;;;;;38.55;22.63;;;;;;;5.25;48.37;101389.06;4884226;29;20049;-76
2022/03/10 09:02:03;;;;;;;25.80;13.80;;;;;;;4.93;49.90;101394.41;4855176;29;20064;-77
2022/03/10 09:04:48;;;;;;;13.27;6.57;;;;;;;5.26;48.96;101396.00;4884248;29;20113;-75
2022/03/10 09:07:32;;;;;;;10.15;6.15;;;;;;;5.23;47.92;101393.31;4884739;29;20049;-82
2022/03/10 09:10:16;;;;;;;13.38;6.18;;;;;;;5.21;47.64;101395.03;4870412;29;20049;-78
2022/03/10 09:13:01;;;;;;;14.18;5.65;;;;;;;4.82;46.77;101390.69;4870576;29;20052;-79
2022/03/10 09:15:46;;;;;;;8.95;5.07;;;;;;;4.56;46.34;101400.44;4870727;29;20045;-78
2022/03/10 09:18:30;;;;;;;9.55;5.93;;;;;;;4.43;48.35;101402.72;4870036;29;20045;-78
2022/03/10 09:21:15;;;;;;;10.80;5.47;;;;;;;5.16;48.25;101398.38;4884038;29;20041;-78
2022/03/10 09:24:00;;;;;;;8.73;5.45;;;;;;;5.22;47.84;101400.25;4883919;29;20334;-77
2022/03/10 09:26:44;;;;;;;9.55;5.45;;;;;;;5.38;45.74;101398.88;4883840;29;20053;-81
2022/03/10 09:29:29;;;;;;;8.25;5.20;;;;;;;5.31;46.13;101404.78;4884311;29;20053;-79
2022/03/10 09:32:13;;;;;;;9.52;5.53;;;;;;;5.24;46.56;101405.50;4883831;29;20041;-80
2022/03/10 09:34:57;;;;;;;9.45;5.93;;;;;;;5.22;47.40;101381.19;4883723;29;20049;-79
2022/03/10 09:37:42;;;;;;;9.98;5.18;;;;;;;5.12;46.81;101393.09;4883809;29;20128;-80
2022/03/10 09:40:27;;;;;;;7.32;4.57;;;;;;;5.06;44.76;101392.97;4883856;29;20053;-79
2022/03/10 09:43:11;;;;;;;8.18;5.10;;;;;;;5.33;43.40;101416.97;4883545;29;20069;-78
2022/03/10 09:45:56;;;;;;;8.88;5.22;;;;;;;5.03;44.40;101409.34;4884072;29;20086;-78
2022/03/10 09:48:41;;;;;;;8.45;4.90;;;;;;;5.24;44.95;101400.31;4869450;29;20057;-82
2022/03/10 09:51:26;;;;;;;10.30;4.90;;;;;;;5.05;46.02;101405.06;4883205;29;20060;-78
2022/03/10 09:54:10;;;;;;;11.35;5.82;;;;;;;5.19;45.33;101400.19;4882445;29;20051;-78
2022/03/10 09:56:55;;;;;;;10.00;5.43;;;;;;;5.49;45.36;101409.47;4883523;29;20052;-78
2022/03/10 09:59:53;;;;;;;9.18;5.18;;;;;;;5.65;43.03;101419.34;4883333;29;20396;-78
2022/03/10 10:02:40;;;;;;;10.07;5.55;;;;;;;5.73;43.74;101419.53;4869767;29;20049;-78
2022/03/10 10:05:30;;;;;;;17.02;8.07;;;;;;;5.80;42.98;101409.25;4869184;29;20443;-78
2022/03/10 10:08:18;;;;;;;9.70;5.65;;;;;;;6.14;43.29;101396.06;4854514;29;20055;-78
2022/03/10 10:11:02;;;;;;;11.02;6.13;;;;;;;6.05;43.36;101409.78;4868849;29;20132;-77
2022/03/10 10:13:48;;;;;;;11.88;5.93;;;;;;;6.24;43.08;101408.38;4881318;29;20041;-78
2022/03/10 10:16:46;;;;;;;11.25;5.93;;;;;;;5.89;41.89;101410.31;4881412;29;20045;-77
2022/03/10 10:19:35;;;;;;;8.80;5.68;;;;;;;6.11;40.93;101417.72;4882351;29;20512;-80
2022/03/10 10:22:20;;;;;;;8.95;5.38;;;;;;;6.17;42.46;101404.78;4882931;29;20045;-80
2022/03/10 10:25:08;;;;;;;8.98;5.45;;;;;;;6.13;41.68;101405.59;4856054;29;20044;-79
2022/03/10 10:27:52;;;;;;;26.77;5.25;;;;;;;5.94;40.24;101409.56;4882801;29;20056;-81
2022/03/10 10:30:51;;;;;;;10.45;5.38;;;;;;;6.26;40.39;101404.97;4856007;29;20041;-80
2022/03/10 10:33:38;;;;;;;8.35;5.15;;;;;;;6.29;38.96;101415.41;4868911;29;20055;-81
2022/03/10 10:36:25;;;;;;;14.43;5.03;;;;;;;6.40;38.29;101419.94;4882989;29;20049;-79
2022/03/10 10:39:13;;;;;;;6.35;4.50;;;;;;;5.82;38.18;101415.38;4882818;29;20055;-79
2022/03/10 10:41:57;;;;;;;6.30;3.70;;;;;;;5.35;39.58;101414.38;4883136;29;20045;-79
2022/03/10 10:44:42;;;;;;;10.73;3.92;;;;;;;6.31;38.44;101413.72;4868874;29;20045;-79
2022/03/10 10:47:29;;;;;;;7.28;4.22;;;;;;;6.36;38.01;101406.00;4882930;29;20057;-75
2022/03/10 10:50:14;;;;;;;7.13;4.10;;;;;;;6.51;36.98;101408.88;4882588;29;20349;-77
2022/03/10 10:52:59;;;;;;;7.95;3.95;;;;;;;6.29;37.56;101402.41;4855690;29;20067;-78
2022/03/10 10:55:45;;;;;;;13.15;4.30;;;;;;;6.32;37.73;101422.41;4869063;29;20045;-78
2022/03/10 10:58:30;;;;;;;9.68;4.47;;;;;;;6.29;38.86;101406.75;4882372;29;20045;-80
2022/03/10 11:01:31;;;;;;;10.68;4.18;;;;;;;6.44;38.19;101411.34;4855095;29;20045;-77
2022/03/10 11:04:16;;;;;;;7.55;4.03;;;;;;;6.53;36.63;101408.88;4866983;29;20041;-79
2022/03/10 11:07:01;;;;;;;10.43;6.20;;;;;;;6.40;37.58;101419.94;4880997;29;20325;-78
2022/03/10 11:09:47;;;;;;;11.68;5.60;;;;;;;6.58;37.97;101412.44;4868405;29;20364;-78
2022/03/10 11:12:34;;;;;;;9.40;3.47;;;;;;;6.42;38.73;101424.31;4882369;29;20120;-76
2022/03/10 11:15:19;;;;;;;6.40;3.92;;;;;;;5.96;38.56;101415.69;4881950;29;20045;-75
2022/03/10 11:18:04;;;;;;;7.43;4.13;;;;;;;6.54;36.95;101418.47;4868121;29;20436;-75
2022/03/10 11:20:57;;;;;;;9.95;3.45;;;;;;;6.52;36.71;101415.81;4882555;29;20085;-74
2022/03/10 11:24:03;;;;;;;8.93;4.85;;;;;;;6.60;36.00;101423.78;4882013;29;20440;-77
2022/03/10 11:27:10;;;;;;;11.15;5.97;;;;;;;6.48;36.35;101418.34;4855303;29;20086;-77
2022/03/10 11:29:56;;;;;;;7.68;3.78;;;;;;;6.40;35.56;101412.13;4868688;29;20049;-80
2022/03/10 11:32:40;;;;;;;6.97;4.18;;;;;;;6.61;35.03;101404.69;4883125;29;20084;-77
2022/03/10 11:35:30;;;;;;;48.47;8.85;;;;;;;6.68;35.41;101405.66;4886093;29;20053;-78
2022/03/10 11:38:16;;;;;;;10.10;5.45;;;;;;;6.64;35.75;101422.97;4885994;29;20052;-79
2022/03/10 11:41:01;;;;;;;7.57;4.07;;;;;;;6.51;35.41;101419.28;4885792;29;20408;-77
2022/03/10 11:43:59;;;;;;;6.63;3.80;;;;;;;6.57;35.95;101409.84;4886206;29;20045;-78
2022/03/10 11:46:57;;;;;;;9.00;4.22;;;;;;;6.44;36.75;101416.56;4885620;29;20056;-78
2022/03/10 11:49:42;;;;;;;8.20;4.35;;;;;;;6.53;36.27;101411.47;4885574;29;20352;-77
2022/03/10 11:52:29;;;;;;;8.65;4.90;;;;;;;6.87;34.86;101412.06;4886107;29;20052;-78
2022/03/10 11:55:14;;;;;;;8.32;3.97;;;;;;;6.94;35.54;101400.88;4872173;29;20045;-77
2022/03/10 11:58:04;;;;;;;6.78;3.60;;;;;;;6.33;34.05;101414.63;4885466;29;20045;-80
2022/03/10 12:00:52;;;;;;;9.15;4.78;;;;;;;6.96;35.20;101418.28;4885527;29;20044;-78
2022/03/10 12:03:37;;;;;;;11.20;5.55;;;;;;;6.78;35.84;101413.63;4871844;29;20053;-77
2022/03/10 12:06:29;;;;;;;9.98;3.95;;;;;;;6.21;36.63;101413.56;4885177;29;20413;-77
2022/03/10 12:09:26;;;;;;;13.45;6.00;;;;;;;6.58;36.86;101415.06;4885491;29;20048;-76
2022/03/10 12:12:27;;;;;;;15.05;7.38;;;;;;;6.87;35.89;101409.44;4885747;29;20069;-78
2022/03/10 12:15:23;;;;;;;6.13;4.00;;;;;;;6.70;35.86;101415.25;4885318;29;20049;-77
2022/03/10 12:18:17;;;;;;;11.13;3.95;;;;;;;6.64;35.14;101409.06;4884912;29;20464;-78
2022/03/10 12:21:19;;;;;;;8.38;4.10;;;;;;;6.33;34.77;101430.22;4871364;29;20044;-79
2022/03/10 12:24:04;;;;;;;12.68;6.68;;;;;;;6.28;35.42;101418.88;4885443;29;20041;-79
2022/03/10 12:26:48;;;;;;;10.00;6.25;;;;;;;6.72;36.27;101415.28;4884845;29;20061;-78
2022/03/10 12:29:34;;;;;;;12.13;6.25;;;;;;;6.77;36.36;101416.22;4871100;29;20045;-77
2022/03/10 12:32:24;;;;;;;24.30;11.32;;;;;;;6.78;34.96;101398.00;4871047;29;20411;-77
2022/03/10 12:35:09;;;;;;;8.52;5.15;;;;;;;6.77;35.19;101411.03;4871589;29;20045;-78
2022/03/10 12:37:53;;;;;;;6.97;3.28;;;;;;;6.53;34.76;101408.88;4870817;29;20041;-77
2022/03/10 12:40:39;;;;;;;8.70;4.53;;;;;;;6.52;34.94;101410.63;4871466;29;20424;-78
2022/03/10 12:43:27;;;;;;;9.40;3.72;;;;;;;6.53;35.02;101406.28;4884984;29;20049;-78
2022/03/10 12:46:11;;;;;;;8.40;4.78;;;;;;;6.60;34.65;101425.47;4870572;29;20048;-78
2022/03/10 12:49:02;;;;;;;7.18;3.88;;;;;;;6.65;34.29;101414.28;4885136;29;20049;-78
2022/03/10 12:51:47;;;;;;;8.25;5.07;;;;;;;6.78;34.23;101412.78;4885082;29;20060;-78